sensor_id;sensor_type;location;lat;lon;timestamp;P1;durP1;ratioP1;P2;durP2;ratioP2
83634;SDS011;73596;49.482;11.238;2024-02-16T00:00:39;3.43;;;1.77;;
83634;SDS011;73596;49.482;11.238;2024-02-16T00:03:04;2.30;;;1.27;;
83634;SDS011;73596;49.482;11.238;2024-02-16T00:05:29;2.40;;;1.73;;
83634;SDS011;73596;49.482;11.238;2024-02-16T00:07:55;5.40;;;2.00;;
83634;SDS011;73596;49.482;11.238;2024-02-16T00:10:20;3.10;;;2.10;;
83634;SDS011;73596;49.482;11.238;2024-02-16T00:12:46;4.25;;;2.35;;
83634;SDS011;73596;49.482;11.238;2024-02-16T00:15:12;3.17;;;1.50;;
83634;SDS011;73596;49.482;11.238;2024-02-16T00:17:37;3.97;;;2.00;;
83634;SDS011;73596;49.482;11.238;2024-02-16T00:20:03;2.42;;;1.50;;
83634;SDS011;73596;49.482;11.238;2024-02-16T00:22:28;3.42;;;1.60;;
83634;SDS011;73596;49.482;11.238;2024-02-16T00:24:54;3.57;;;1.87;;
83634;SDS011;73596;49.482;11.238;2024-02-16T00:27:19;2.93;;;1.57;;
83634;SDS011;73596;49.482;11.238;2024-02-16T00:29:44;3.13;;;1.70;;
83634;SDS011;73596;49.482;11.238;2024-02-16T00:32:11;3.42;;;1.83;;
83634;SDS011;73596;49.482;11.238;2024-02-16T00:34:37;4.20;;;1.80;;
83634;SDS011;73596;49.482;11.238;2024-02-16T00:37:04;5.32;;;2.15;;
83634;SDS011;73596;49.482;11.238;2024-02-16T00:39:34;3.70;;;1.80;;
83634;SDS011;73596;49.482;11.238;2024-02-16T00:42:00;2.72;;;1.60;;
83634;SDS011;73596;49.482;11.238;2024-02-16T00:44:26;2.17;;;1.48;;
83634;SDS011;73596;49.482;11.238;2024-02-16T00:46:52;2.38;;;1.63;;
83634;SDS011;73596;49.482;11.238;2024-02-16T00:49:17;2.77;;;1.83;;
83634;SDS011;73596;49.482;11.238;2024-02-16T00:51:42;3.00;;;1.33;;
83634;SDS011;73596;49.482;11.238;2024-02-16T00:54:07;3.13;;;1.80;;
83634;SDS011;73596;49.482;11.238;2024-02-16T00:56:33;3.20;;;1.53;;
83634;SDS011;73596;49.482;11.238;2024-02-16T00:58:58;2.77;;;1.57;;
83634;SDS011;73596;49.482;11.238;2024-02-16T01:01:23;2.90;;;1.90;;
83634;SDS011;73596;49.482;11.238;2024-02-16T01:03:51;4.55;;;1.50;;
83634;SDS011;73596;49.482;11.238;2024-02-16T01:06:19;3.42;;;1.80;;
83634;SDS011;73596;49.482;11.238;2024-02-16T01:08:44;3.65;;;1.77;;
83634;SDS011;73596;49.482;11.238;2024-02-16T01:11:11;2.28;;;1.40;;
83634;SDS011;73596;49.482;11.238;2024-02-16T01:13:36;3.17;;;1.40;;
83634;SDS011;73596;49.482;11.238;2024-02-16T01:16:02;2.67;;;1.63;;
83634;SDS011;73596;49.482;11.238;2024-02-16T01:18:28;3.13;;;1.65;;
83634;SDS011;73596;49.482;11.238;2024-02-16T01:20:54;1.98;;;1.40;;
83634;SDS011;73596;49.482;11.238;2024-02-16T01:23:20;3.57;;;1.20;;
83634;SDS011;73596;49.482;11.238;2024-02-16T01:25:45;2.83;;;1.20;;
83634;SDS011;73596;49.482;11.238;2024-02-16T01:28:11;2.50;;;1.48;;
83634;SDS011;73596;49.482;11.238;2024-02-16T01:30:37;3.45;;;1.63;;
83634;SDS011;73596;49.482;11.238;2024-02-16T01:33:03;1.95;;;1.40;;
83634;SDS011;73596;49.482;11.238;2024-02-16T01:35:28;2.40;;;1.40;;
83634;SDS011;73596;49.482;11.238;2024-02-16T01:37:54;2.00;;;1.10;;
83634;SDS011;73596;49.482;11.238;2024-02-16T01:40:19;2.03;;;1.27;;
83634;SDS011;73596;49.482;11.238;2024-02-16T01:42:44;2.27;;;1.40;;
83634;SDS011;73596;49.482;11.238;2024-02-16T01:45:10;1.50;;;1.13;;
83634;SDS011;73596;49.482;11.238;2024-02-16T01:47:37;1.65;;;1.20;;
83634;SDS011;73596;49.482;11.238;2024-02-16T01:50:03;2.25;;;1.02;;
83634;SDS011;73596;49.482;11.238;2024-02-16T01:52:30;5.13;;;2.03;;
83634;SDS011;73596;49.482;11.238;2024-02-16T01:54:56;4.03;;;2.80;;
83634;SDS011;73596;49.482;11.238;2024-02-16T01:57:23;2.58;;;1.88;;
83634;SDS011;73596;49.482;11.238;2024-02-16T01:59:48;2.35;;;1.55;;
83634;SDS011;73596;49.482;11.238;2024-02-16T02:02:15;3.33;;;1.67;;
83634;SDS011;73596;49.482;11.238;2024-02-16T02:04:40;2.77;;;1.73;;
83634;SDS011;73596;49.482;11.238;2024-02-16T02:07:12;2.33;;;1.30;;
83634;SDS011;73596;49.482;11.238;2024-02-16T02:09:38;2.83;;;1.40;;
83634;SDS011;73596;49.482;11.238;2024-02-16T02:12:03;3.27;;;1.37;;
83634;SDS011;73596;49.482;11.238;2024-02-16T02:14:29;1.88;;;1.27;;
83634;SDS011;73596;49.482;11.238;2024-02-16T02:16:54;2.13;;;1.20;;
83634;SDS011;73596;49.482;11.238;2024-02-16T02:19:19;2.65;;;1.48;;
83634;SDS011;73596;49.482;11.238;2024-02-16T02:21:45;3.05;;;1.67;;
83634;SDS011;73596;49.482;11.238;2024-02-16T02:24:10;2.23;;;1.13;;
83634;SDS011;73596;49.482;11.238;2024-02-16T02:26:35;2.03;;;1.23;;
83634;SDS011;73596;49.482;11.238;2024-02-16T02:29:01;1.00;;;0.80;;
83634;SDS011;73596;49.482;11.238;2024-02-16T02:31:26;1.77;;;1.10;;
83634;SDS011;73596;49.482;11.238;2024-02-16T02:33:51;2.50;;;1.17;;
83634;SDS011;73596;49.482;11.238;2024-02-16T02:36:17;1.80;;;1.30;;
83634;SDS011;73596;49.482;11.238;2024-02-16T02:38:42;1.97;;;1.13;;
83634;SDS011;73596;49.482;11.238;2024-02-16T02:41:08;1.80;;;1.20;;
83634;SDS011;73596;49.482;11.238;2024-02-16T02:43:33;1.90;;;1.10;;
83634;SDS011;73596;49.482;11.238;2024-02-16T02:45:59;1.60;;;1.20;;
83634;SDS011;73596;49.482;11.238;2024-02-16T02:48:24;2.73;;;1.17;;
83634;SDS011;73596;49.482;11.238;2024-02-16T02:50:49;1.27;;;0.87;;
83634;SDS011;73596;49.482;11.238;2024-02-16T02:53:15;1.33;;;0.80;;
83634;SDS011;73596;49.482;11.238;2024-02-16T02:55:40;3.50;;;1.30;;
83634;SDS011;73596;49.482;11.238;2024-02-16T02:58:05;2.87;;;1.80;;
83634;SDS011;73596;49.482;11.238;2024-02-16T03:00:31;3.30;;;1.10;;
83634;SDS011;73596;49.482;11.238;2024-02-16T03:02:56;1.93;;;0.90;;
83634;SDS011;73596;49.482;11.238;2024-02-16T03:05:21;1.23;;;1.00;;
83634;SDS011;73596;49.482;11.238;2024-02-16T03:07:47;2.35;;;1.20;;
83634;SDS011;73596;49.482;11.238;2024-02-16T03:10:12;1.70;;;1.60;;
83634;SDS011;73596;49.482;11.238;2024-02-16T03:12:39;2.22;;;1.50;;
83634;SDS011;73596;49.482;11.238;2024-02-16T03:15:05;2.20;;;1.53;;
83634;SDS011;73596;49.482;11.238;2024-02-16T03:17:30;2.17;;;1.45;;
83634;SDS011;73596;49.482;11.238;2024-02-16T03:19:56;1.57;;;0.97;;
83634;SDS011;73596;49.482;11.238;2024-02-16T03:22:21;2.77;;;1.53;;
83634;SDS011;73596;49.482;11.238;2024-02-16T03:24:46;2.93;;;1.70;;
83634;SDS011;73596;49.482;11.238;2024-02-16T03:27:12;3.53;;;2.17;;
83634;SDS011;73596;49.482;11.238;2024-02-16T03:29:38;2.77;;;1.13;;
83634;SDS011;73596;49.482;11.238;2024-02-16T03:32:03;2.80;;;1.60;;
83634;SDS011;73596;49.482;11.238;2024-02-16T03:34:28;1.53;;;1.10;;
83634;SDS011;73596;49.482;11.238;2024-02-16T03:36:54;1.45;;;1.02;;
83634;SDS011;73596;49.482;11.238;2024-02-16T03:39:20;2.53;;;1.33;;
83634;SDS011;73596;49.482;11.238;2024-02-16T03:41:45;2.03;;;1.13;;
83634;SDS011;73596;49.482;11.238;2024-02-16T03:44:13;2.13;;;1.10;;
83634;SDS011;73596;49.482;11.238;2024-02-16T03:46:39;2.33;;;1.10;;
83634;SDS011;73596;49.482;11.238;2024-02-16T03:49:04;1.27;;;0.90;;
83634;SDS011;73596;49.482;11.238;2024-02-16T03:51:30;3.25;;;1.90;;
83634;SDS011;73596;49.482;11.238;2024-02-16T03:53:55;2.37;;;1.70;;
83634;SDS011;73596;49.482;11.238;2024-02-16T03:56:20;1.93;;;1.33;;
83634;SDS011;73596;49.482;11.238;2024-02-16T03:58:46;1.55;;;1.13;;
83634;SDS011;73596;49.482;11.238;2024-02-16T04:01:11;1.17;;;1.05;;
83634;SDS011;73596;49.482;11.238;2024-02-16T04:03:36;1.73;;;1.20;;
83634;SDS011;73596;49.482;11.238;2024-02-16T04:06:02;2.03;;;1.13;;
83634;SDS011;73596;49.482;11.238;2024-02-16T04:08:29;1.75;;;0.90;;
83634;SDS011;73596;49.482;11.238;2024-02-16T04:10:54;1.43;;;0.90;;
83634;SDS011;73596;49.482;11.238;2024-02-16T04:13:20;1.40;;;0.97;;
83634;SDS011;73596;49.482;11.238;2024-02-16T04:15:45;1.43;;;0.90;;
83634;SDS011;73596;49.482;11.238;2024-02-16T04:18:10;1.27;;;1.13;;
83634;SDS011;73596;49.482;11.238;2024-02-16T04:20:35;1.93;;;1.10;;
83634;SDS011;73596;49.482;11.238;2024-02-16T04:23:01;1.77;;;1.10;;
83634;SDS011;73596;49.482;11.238;2024-02-16T04:25:26;1.40;;;1.00;;
83634;SDS011;73596;49.482;11.238;2024-02-16T04:27:51;1.40;;;1.00;;
83634;SDS011;73596;49.482;11.238;2024-02-16T04:30:17;1.37;;;0.93;;
83634;SDS011;73596;49.482;11.238;2024-02-16T04:32:42;2.15;;;0.85;;
83634;SDS011;73596;49.482;11.238;2024-02-16T04:35:07;1.90;;;1.30;;
83634;SDS011;73596;49.482;11.238;2024-02-16T04:37:36;4.22;;;1.48;;
83634;SDS011;73596;49.482;11.238;2024-02-16T04:40:03;3.25;;;1.65;;
83634;SDS011;73596;49.482;11.238;2024-02-16T04:42:30;4.40;;;2.15;;
83634;SDS011;73596;49.482;11.238;2024-02-16T04:44:56;2.92;;;1.60;;
83634;SDS011;73596;49.482;11.238;2024-02-16T04:47:21;1.67;;;1.30;;
83634;SDS011;73596;49.482;11.238;2024-02-16T04:49:46;2.10;;;1.17;;
83634;SDS011;73596;49.482;11.238;2024-02-16T04:52:11;1.77;;;1.10;;
83634;SDS011;73596;49.482;11.238;2024-02-16T04:54:37;2.80;;;1.57;;
83634;SDS011;73596;49.482;11.238;2024-02-16T04:57:05;3.47;;;1.90;;
83634;SDS011;73596;49.482;11.238;2024-02-16T04:59:30;2.67;;;1.40;;
83634;SDS011;73596;49.482;11.238;2024-02-16T05:01:55;2.77;;;1.60;;
83634;SDS011;73596;49.482;11.238;2024-02-16T05:04:21;1.60;;;1.30;;
83634;SDS011;73596;49.482;11.238;2024-02-16T05:06:46;2.70;;;0.93;;
83634;SDS011;73596;49.482;11.238;2024-02-16T05:09:12;2.23;;;1.10;;
83634;SDS011;73596;49.482;11.238;2024-02-16T05:11:41;1.50;;;0.75;;
83634;SDS011;73596;49.482;11.238;2024-02-16T05:14:06;1.97;;;0.97;;
83634;SDS011;73596;49.482;11.238;2024-02-16T05:16:32;2.95;;;1.20;;
83634;SDS011;73596;49.482;11.238;2024-02-16T05:18:57;1.33;;;0.70;;
83634;SDS011;73596;49.482;11.238;2024-02-16T05:21:22;0.90;;;0.70;;
83634;SDS011;73596;49.482;11.238;2024-02-16T05:23:48;1.50;;;0.88;;
83634;SDS011;73596;49.482;11.238;2024-02-16T05:26:13;2.63;;;1.33;;
83634;SDS011;73596;49.482;11.238;2024-02-16T05:28:38;2.63;;;1.20;;
83634;SDS011;73596;49.482;11.238;2024-02-16T05:31:13;2.13;;;1.88;;
83634;SDS011;73596;49.482;11.238;2024-02-16T05:33:43;4.85;;;2.85;;
83634;SDS011;73596;49.482;11.238;2024-02-16T05:36:09;9.77;;;4.18;;
83634;SDS011;73596;49.482;11.238;2024-02-16T05:38:35;7.35;;;2.95;;
83634;SDS011;73596;49.482;11.238;2024-02-16T05:41:05;5.50;;;3.65;;
83634;SDS011;73596;49.482;11.238;2024-02-16T05:43:31;5.65;;;2.80;;
83634;SDS011;73596;49.482;11.238;2024-02-16T05:45:58;3.80;;;2.10;;
83634;SDS011;73596;49.482;11.238;2024-02-16T05:48:23;3.75;;;2.15;;
83634;SDS011;73596;49.482;11.238;2024-02-16T05:50:51;3.67;;;1.73;;
83634;SDS011;73596;49.482;11.238;2024-02-16T05:53:17;3.55;;;1.73;;
83634;SDS011;73596;49.482;11.238;2024-02-16T05:55:43;2.70;;;1.60;;
83634;SDS011;73596;49.482;11.238;2024-02-16T05:58:09;3.47;;;1.90;;
83634;SDS011;73596;49.482;11.238;2024-02-16T06:00:35;2.05;;;1.75;;
83634;SDS011;73596;49.482;11.238;2024-02-16T06:03:00;2.77;;;1.40;;
83634;SDS011;73596;49.482;11.238;2024-02-16T06:05:26;2.75;;;1.90;;
83634;SDS011;73596;49.482;11.238;2024-02-16T06:07:52;4.28;;;1.60;;
83634;SDS011;73596;49.482;11.238;2024-02-16T06:10:17;3.93;;;1.93;;
83634;SDS011;73596;49.482;11.238;2024-02-16T06:12:43;4.57;;;2.00;;
83634;SDS011;73596;49.482;11.238;2024-02-16T06:15:08;2.35;;;1.73;;
83634;SDS011;73596;49.482;11.238;2024-02-16T06:17:34;3.25;;;1.88;;
83634;SDS011;73596;49.482;11.238;2024-02-16T06:20:01;4.60;;;2.28;;
83634;SDS011;73596;49.482;11.238;2024-02-16T06:22:29;3.38;;;2.00;;
83634;SDS011;73596;49.482;11.238;2024-02-16T06:24:56;3.17;;;1.52;;
83634;SDS011;73596;49.482;11.238;2024-02-16T06:27:22;3.33;;;1.75;;
83634;SDS011;73596;49.482;11.238;2024-02-16T06:29:48;2.25;;;1.42;;
83634;SDS011;73596;49.482;11.238;2024-02-16T06:32:14;3.03;;;1.40;;
83634;SDS011;73596;49.482;11.238;2024-02-16T06:34:39;4.73;;;2.10;;
83634;SDS011;73596;49.482;11.238;2024-02-16T06:37:04;2.97;;;1.70;;
83634;SDS011;73596;49.482;11.238;2024-02-16T06:39:30;2.95;;;1.77;;
83634;SDS011;73596;49.482;11.238;2024-02-16T06:41:56;2.83;;;1.60;;
83634;SDS011;73596;49.482;11.238;2024-02-16T06:44:21;2.58;;;1.83;;
83634;SDS011;73596;49.482;11.238;2024-02-16T06:46:46;2.87;;;1.70;;
83634;SDS011;73596;49.482;11.238;2024-02-16T06:49:11;1.80;;;1.03;;
83634;SDS011;73596;49.482;11.238;2024-02-16T06:51:37;2.00;;;1.20;;
83634;SDS011;73596;49.482;11.238;2024-02-16T06:54:02;2.27;;;1.30;;
83634;SDS011;73596;49.482;11.238;2024-02-16T06:56:29;2.08;;;1.30;;
83634;SDS011;73596;49.482;11.238;2024-02-16T06:58:55;2.47;;;1.42;;
83634;SDS011;73596;49.482;11.238;2024-02-16T07:01:20;2.63;;;1.60;;
83634;SDS011;73596;49.482;11.238;2024-02-16T07:03:45;2.83;;;1.40;;
83634;SDS011;73596;49.482;11.238;2024-02-16T07:06:11;2.03;;;1.57;;
83634;SDS011;73596;49.482;11.238;2024-02-16T07:08:41;2.90;;;1.75;;
83634;SDS011;73596;49.482;11.238;2024-02-16T07:11:08;2.88;;;2.15;;
83634;SDS011;73596;49.482;11.238;2024-02-16T07:13:36;5.47;;;2.70;;
83634;SDS011;73596;49.482;11.238;2024-02-16T07:16:02;6.32;;;3.13;;
83634;SDS011;73596;49.482;11.238;2024-02-16T07:18:28;5.80;;;2.45;;
83634;SDS011;73596;49.482;11.238;2024-02-16T07:20:55;12.45;;;5.32;;
83634;SDS011;73596;49.482;11.238;2024-02-16T07:23:21;16.05;;;7.82;;
83634;SDS011;73596;49.482;11.238;2024-02-16T07:25:46;17.07;;;7.27;;
83634;SDS011;73596;49.482;11.238;2024-02-16T07:28:11;14.53;;;6.30;;
83634;SDS011;73596;49.482;11.238;2024-02-16T07:30:36;14.73;;;6.63;;
83634;SDS011;73596;49.482;11.238;2024-02-16T07:33:03;12.25;;;6.43;;
83634;SDS011;73596;49.482;11.238;2024-02-16T07:35:34;10.45;;;5.00;;
83634;SDS011;73596;49.482;11.238;2024-02-16T07:38:00;7.55;;;3.55;;
83634;SDS011;73596;49.482;11.238;2024-02-16T07:40:26;7.13;;;3.30;;
83634;SDS011;73596;49.482;11.238;2024-02-16T07:42:52;7.40;;;4.03;;
83634;SDS011;73596;49.482;11.238;2024-02-16T07:45:17;7.67;;;4.43;;
83634;SDS011;73596;49.482;11.238;2024-02-16T07:47:42;9.13;;;4.10;;
83634;SDS011;73596;49.482;11.238;2024-02-16T07:50:08;7.22;;;3.47;;
83634;SDS011;73596;49.482;11.238;2024-02-16T07:52:34;7.00;;;3.30;;
83634;SDS011;73596;49.482;11.238;2024-02-16T07:54:59;6.67;;;3.33;;
83634;SDS011;73596;49.482;11.238;2024-02-16T07:57:24;6.47;;;2.60;;
83634;SDS011;73596;49.482;11.238;2024-02-16T07:59:50;6.43;;;2.60;;
83634;SDS011;73596;49.482;11.238;2024-02-16T08:02:15;4.93;;;2.73;;
83634;SDS011;73596;49.482;11.238;2024-02-16T08:04:42;5.80;;;3.08;;
83634;SDS011;73596;49.482;11.238;2024-02-16T08:07:08;5.45;;;3.08;;
83634;SDS011;73596;49.482;11.238;2024-02-16T08:09:34;4.22;;;2.67;;
83634;SDS011;73596;49.482;11.238;2024-02-16T08:11:59;8.47;;;3.60;;
83634;SDS011;73596;49.482;11.238;2024-02-16T08:14:25;8.02;;;4.05;;
83634;SDS011;73596;49.482;11.238;2024-02-16T08:16:50;6.22;;;3.22;;
83634;SDS011;73596;49.482;11.238;2024-02-16T08:19:15;8.87;;;5.60;;
83634;SDS011;73596;49.482;11.238;2024-02-16T08:21:41;11.30;;;6.07;;
83634;SDS011;73596;49.482;11.238;2024-02-16T08:24:06;7.63;;;4.73;;
83634;SDS011;73596;49.482;11.238;2024-02-16T08:26:32;10.13;;;5.07;;
83634;SDS011;73596;49.482;11.238;2024-02-16T08:28:57;8.27;;;4.10;;
83634;SDS011;73596;49.482;11.238;2024-02-16T08:31:23;7.30;;;4.80;;
83634;SDS011;73596;49.482;11.238;2024-02-16T08:33:48;6.67;;;3.63;;
83634;SDS011;73596;49.482;11.238;2024-02-16T08:36:13;6.77;;;4.03;;
83634;SDS011;73596;49.482;11.238;2024-02-16T08:38:39;7.88;;;3.78;;
83634;SDS011;73596;49.482;11.238;2024-02-16T08:41:04;6.15;;;3.45;;
83634;SDS011;73596;49.482;11.238;2024-02-16T08:43:30;8.60;;;4.50;;
83634;SDS011;73596;49.482;11.238;2024-02-16T08:45:55;6.83;;;3.87;;
83634;SDS011;73596;49.482;11.238;2024-02-16T08:48:21;10.32;;;6.10;;
83634;SDS011;73596;49.482;11.238;2024-02-16T08:50:46;9.38;;;5.57;;
83634;SDS011;73596;49.482;11.238;2024-02-16T08:53:12;10.45;;;5.13;;
83634;SDS011;73596;49.482;11.238;2024-02-16T08:55:39;8.57;;;4.60;;
83634;SDS011;73596;49.482;11.238;2024-02-16T08:58:06;6.32;;;4.32;;
83634;SDS011;73596;49.482;11.238;2024-02-16T09:00:32;7.18;;;4.35;;
83634;SDS011;73596;49.482;11.238;2024-02-16T09:02:57;9.33;;;4.50;;
83634;SDS011;73596;49.482;11.238;2024-02-16T09:05:23;6.57;;;4.57;;
83634;SDS011;73596;49.482;11.238;2024-02-16T09:07:48;8.63;;;4.03;;
83634;SDS011;73596;49.482;11.238;2024-02-16T09:10:13;9.38;;;5.93;;
83634;SDS011;73596;49.482;11.238;2024-02-16T09:12:39;8.60;;;4.93;;
83634;SDS011;73596;49.482;11.238;2024-02-16T09:15:05;6.18;;;3.53;;
83634;SDS011;73596;49.482;11.238;2024-02-16T09:17:31;3.70;;;2.38;;
83634;SDS011;73596;49.482;11.238;2024-02-16T09:19:56;5.10;;;3.08;;
83634;SDS011;73596;49.482;11.238;2024-02-16T09:22:21;5.93;;;3.53;;
83634;SDS011;73596;49.482;11.238;2024-02-16T09:24:47;5.93;;;3.55;;
83634;SDS011;73596;49.482;11.238;2024-02-16T09:27:12;7.60;;;4.13;;
83634;SDS011;73596;49.482;11.238;2024-02-16T09:29:37;6.10;;;2.80;;
83634;SDS011;73596;49.482;11.238;2024-02-16T09:32:03;5.70;;;3.37;;
83634;SDS011;73596;49.482;11.238;2024-02-16T09:34:29;4.65;;;2.55;;
83634;SDS011;73596;49.482;11.238;2024-02-16T09:36:54;6.57;;;4.10;;
83634;SDS011;73596;49.482;11.238;2024-02-16T09:39:19;4.47;;;2.70;;
83634;SDS011;73596;49.482;11.238;2024-02-16T09:41:44;7.37;;;3.93;;
83634;SDS011;73596;49.482;11.238;2024-02-16T09:44:16;5.15;;;3.30;;
83634;SDS011;73596;49.482;11.238;2024-02-16T09:46:42;4.32;;;2.47;;
83634;SDS011;73596;49.482;11.238;2024-02-16T09:49:07;6.15;;;3.53;;
83634;SDS011;73596;49.482;11.238;2024-02-16T09:51:36;5.27;;;3.37;;
83634;SDS011;73596;49.482;11.238;2024-02-16T09:54:02;5.60;;;3.40;;
83634;SDS011;73596;49.482;11.238;2024-02-16T09:56:28;6.07;;;3.78;;
83634;SDS011;73596;49.482;11.238;2024-02-16T09:58:53;6.47;;;3.13;;
83634;SDS011;73596;49.482;11.238;2024-02-16T10:01:20;9.00;;;3.83;;
83634;SDS011;73596;49.482;11.238;2024-02-16T10:03:46;5.65;;;3.40;;
83634;SDS011;73596;49.482;11.238;2024-02-16T10:06:13;4.97;;;3.22;;
83634;SDS011;73596;49.482;11.238;2024-02-16T10:08:55;7.10;;;4.55;;
83634;SDS011;73596;49.482;11.238;2024-02-16T10:11:25;6.82;;;4.22;;
83634;SDS011;73596;49.482;11.238;2024-02-16T10:13:57;4.13;;;2.25;;
83634;SDS011;73596;49.482;11.238;2024-02-16T10:16:25;6.95;;;3.65;;
83634;SDS011;73596;49.482;11.238;2024-02-16T10:18:52;9.73;;;4.28;;
83634;SDS011;73596;49.482;11.238;2024-02-16T10:21:29;7.90;;;3.97;;
83634;SDS011;73596;49.482;11.238;2024-02-16T10:24:05;6.03;;;3.30;;
83634;SDS011;73596;49.482;11.238;2024-02-16T10:26:35;7.82;;;4.13;;
83634;SDS011;73596;49.482;11.238;2024-02-16T10:29:05;4.90;;;2.75;;
83634;SDS011;73596;49.482;11.238;2024-02-16T10:31:33;3.72;;;2.42;;
83634;SDS011;73596;49.482;11.238;2024-02-16T10:33:59;5.20;;;3.47;;
83634;SDS011;73596;49.482;11.238;2024-02-16T10:36:25;3.72;;;2.25;;
83634;SDS011;73596;49.482;11.238;2024-02-16T10:38:54;3.72;;;2.10;;
83634;SDS011;73596;49.482;11.238;2024-02-16T10:41:21;5.57;;;3.67;;
83634;SDS011;73596;49.482;11.238;2024-02-16T10:43:51;4.28;;;2.38;;
83634;SDS011;73596;49.482;11.238;2024-02-16T10:46:18;5.10;;;2.90;;
83634;SDS011;73596;49.482;11.238;2024-02-16T10:48:45;2.63;;;1.92;;
83634;SDS011;73596;49.482;11.238;2024-02-16T10:51:10;7.27;;;3.47;;
83634;SDS011;73596;49.482;11.238;2024-02-16T10:53:37;7.15;;;3.65;;
83634;SDS011;73596;49.482;11.238;2024-02-16T10:56:03;3.10;;;2.15;;
83634;SDS011;73596;49.482;11.238;2024-02-16T10:58:28;2.67;;;1.77;;
83634;SDS011;73596;49.482;11.238;2024-02-16T11:00:55;3.25;;;2.22;;
83634;SDS011;73596;49.482;11.238;2024-02-16T11:03:22;5.72;;;2.78;;
83634;SDS011;73596;49.482;11.238;2024-02-16T11:05:53;5.05;;;3.35;;
83634;SDS011;73596;49.482;11.238;2024-02-16T11:08:19;4.43;;;2.90;;
83634;SDS011;73596;49.482;11.238;2024-02-16T11:11:01;5.05;;;3.15;;
83634;SDS011;73596;49.482;11.238;2024-02-16T11:13:32;4.57;;;3.08;;
83634;SDS011;73596;49.482;11.238;2024-02-16T11:15:58;5.32;;;3.22;;
83634;SDS011;73596;49.482;11.238;2024-02-16T11:18:31;5.40;;;2.85;;
83634;SDS011;73596;49.482;11.238;2024-02-16T11:21:03;3.70;;;1.95;;
83634;SDS011;73596;49.482;11.238;2024-02-16T11:23:29;4.50;;;2.65;;
83634;SDS011;73596;49.482;11.238;2024-02-16T11:26:02;3.58;;;2.50;;
83634;SDS011;73596;49.482;11.238;2024-02-16T11:28:32;3.70;;;2.58;;
83634;SDS011;73596;49.482;11.238;2024-02-16T11:30:59;2.20;;;1.73;;
83634;SDS011;73596;49.482;11.238;2024-02-16T11:33:25;4.03;;;2.75;;
83634;SDS011;73596;49.482;11.238;2024-02-16T11:35:59;3.83;;;2.25;;
83634;SDS011;73596;49.482;11.238;2024-02-16T11:38:25;3.28;;;1.67;;
83634;SDS011;73596;49.482;11.238;2024-02-16T11:43:24;2.80;;;1.80;;
83634;SDS011;73596;49.482;11.238;2024-02-16T11:45:50;2.58;;;1.30;;
83634;SDS011;73596;49.482;11.238;2024-02-16T11:48:19;2.30;;;1.25;;
83634;SDS011;73596;49.482;11.238;2024-02-16T11:51:01;4.78;;;3.10;;
83634;SDS011;73596;49.482;11.238;2024-02-16T11:53:31;4.28;;;2.70;;
83634;SDS011;73596;49.482;11.238;2024-02-16T11:55:57;4.07;;;2.70;;
83634;SDS011;73596;49.482;11.238;2024-02-16T11:58:23;2.83;;;1.92;;
83634;SDS011;73596;49.482;11.238;2024-02-16T12:00:49;2.55;;;1.88;;
83634;SDS011;73596;49.482;11.238;2024-02-16T12:03:19;3.60;;;2.15;;
83634;SDS011;73596;49.482;11.238;2024-02-16T12:05:52;3.67;;;2.30;;
83634;SDS011;73596;49.482;11.238;2024-02-16T12:08:22;4.63;;;2.50;;
83634;SDS011;73596;49.482;11.238;2024-02-16T12:10:48;2.85;;;1.92;;
83634;SDS011;73596;49.482;11.238;2024-02-16T12:13:17;3.05;;;1.67;;
83634;SDS011;73596;49.482;11.238;2024-02-16T12:15:47;3.85;;;1.50;;
83634;SDS011;73596;49.482;11.238;2024-02-16T12:18:24;2.72;;;1.80;;
83634;SDS011;73596;49.482;11.238;2024-02-16T12:20:58;2.90;;;1.40;;
83634;SDS011;73596;49.482;11.238;2024-02-16T12:23:23;3.33;;;1.45;;
83634;SDS011;73596;49.482;11.238;2024-02-16T12:25:48;3.78;;;2.58;;
83634;SDS011;73596;49.482;11.238;2024-02-16T12:28:14;3.03;;;2.10;;
83634;SDS011;73596;49.482;11.238;2024-02-16T12:30:39;2.67;;;1.53;;
83634;SDS011;73596;49.482;11.238;2024-02-16T12:33:05;2.25;;;1.63;;
83634;SDS011;73596;49.482;11.238;2024-02-16T12:35:30;2.45;;;1.73;;
83634;SDS011;73596;49.482;11.238;2024-02-16T12:37:56;2.88;;;1.90;;
83634;SDS011;73596;49.482;11.238;2024-02-16T12:40:21;1.90;;;1.58;;
83634;SDS011;73596;49.482;11.238;2024-02-16T12:42:46;3.10;;;2.33;;
83634;SDS011;73596;49.482;11.238;2024-02-16T12:45:12;3.63;;;2.28;;
83634;SDS011;73596;49.482;11.238;2024-02-16T12:47:38;3.22;;;1.90;;
83634;SDS011;73596;49.482;11.238;2024-02-16T12:50:03;5.80;;;2.03;;
83634;SDS011;73596;49.482;11.238;2024-02-16T12:52:29;3.85;;;2.35;;
83634;SDS011;73596;49.482;11.238;2024-02-16T12:54:56;4.13;;;2.60;;
83634;SDS011;73596;49.482;11.238;2024-02-16T12:57:23;4.57;;;2.53;;
83634;SDS011;73596;49.482;11.238;2024-02-16T12:59:48;4.60;;;2.60;;
83634;SDS011;73596;49.482;11.238;2024-02-16T13:02:14;4.90;;;2.20;;
83634;SDS011;73596;49.482;11.238;2024-02-16T13:04:39;3.87;;;1.90;;
83634;SDS011;73596;49.482;11.238;2024-02-16T13:07:05;4.57;;;2.40;;
83634;SDS011;73596;49.482;11.238;2024-02-16T13:09:30;3.30;;;2.08;;
83634;SDS011;73596;49.482;11.238;2024-02-16T13:11:56;2.23;;;1.73;;
83634;SDS011;73596;49.482;11.238;2024-02-16T13:14:21;4.85;;;2.70;;
83634;SDS011;73596;49.482;11.238;2024-02-16T13:16:46;2.57;;;1.87;;
83634;SDS011;73596;49.482;11.238;2024-02-16T13:19:12;4.47;;;2.43;;
83634;SDS011;73596;49.482;11.238;2024-02-16T13:21:38;2.63;;;1.50;;
83634;SDS011;73596;49.482;11.238;2024-02-16T13:24:03;2.40;;;1.65;;
83634;SDS011;73596;49.482;11.238;2024-02-16T13:26:29;2.70;;;1.83;;
83634;SDS011;73596;49.482;11.238;2024-02-16T13:28:55;3.30;;;1.67;;
83634;SDS011;73596;49.482;11.238;2024-02-16T13:31:20;3.63;;;2.30;;
83634;SDS011;73596;49.482;11.238;2024-02-16T13:33:46;6.63;;;3.08;;
83634;SDS011;73596;49.482;11.238;2024-02-16T13:36:11;3.88;;;2.25;;
83634;SDS011;73596;49.482;11.238;2024-02-16T13:38:37;3.23;;;2.10;;
83634;SDS011;73596;49.482;11.238;2024-02-16T13:41:02;3.05;;;2.10;;
83634;SDS011;73596;49.482;11.238;2024-02-16T13:43:30;4.80;;;2.53;;
83634;SDS011;73596;49.482;11.238;2024-02-16T13:46:01;3.42;;;1.25;;
83634;SDS011;73596;49.482;11.238;2024-02-16T13:48:26;5.10;;;2.08;;
83634;SDS011;73596;49.482;11.238;2024-02-16T13:50:53;3.03;;;1.88;;
83634;SDS011;73596;49.482;11.238;2024-02-16T13:53:19;3.33;;;2.47;;
83634;SDS011;73596;49.482;11.238;2024-02-16T13:55:47;2.28;;;1.58;;
83634;SDS011;73596;49.482;11.238;2024-02-16T13:58:13;2.25;;;1.50;;
83634;SDS011;73596;49.482;11.238;2024-02-16T14:00:39;2.08;;;1.33;;
83634;SDS011;73596;49.482;11.238;2024-02-16T14:03:05;3.53;;;2.35;;
83634;SDS011;73596;49.482;11.238;2024-02-16T14:05:33;4.05;;;2.83;;
83634;SDS011;73596;49.482;11.238;2024-02-16T14:08:00;3.35;;;2.10;;
83634;SDS011;73596;49.482;11.238;2024-02-16T14:10:26;2.70;;;1.90;;
83634;SDS011;73596;49.482;11.238;2024-02-16T14:12:51;3.20;;;2.20;;
83634;SDS011;73596;49.482;11.238;2024-02-16T14:15:17;2.38;;;1.40;;
83634;SDS011;73596;49.482;11.238;2024-02-16T14:17:43;2.83;;;1.67;;
83634;SDS011;73596;49.482;11.238;2024-02-16T14:20:09;4.03;;;2.05;;
83634;SDS011;73596;49.482;11.238;2024-02-16T14:22:35;3.33;;;2.10;;
83634;SDS011;73596;49.482;11.238;2024-02-16T14:25:00;3.13;;;2.03;;
83634;SDS011;73596;49.482;11.238;2024-02-16T14:27:26;3.80;;;1.90;;
83634;SDS011;73596;49.482;11.238;2024-02-16T14:29:51;2.43;;;1.70;;